sensor_id;sensor_type;location;lat;lon;timestamp;P1;durP1;ratioP1;P2;durP2;ratioP2
12369;SDS011;6249;52.128;9.986;2023-02-11T00:01:30;69.90;;;31.70;;
12369;SDS011;6249;52.128;9.986;2023-02-11T00:04:52;76.53;;;31.37;;
12369;SDS011;6249;52.128;9.986;2023-02-11T00:08:13;78.57;;;33.40;;
12369;SDS011;6249;52.128;9.986;2023-02-11T00:11:35;66.93;;;32.70;;
12369;SDS011;6249;52.128;9.986;2023-02-11T00:14:58;80.53;;;35.40;;
12369;SDS011;6249;52.128;9.986;2023-02-11T00:18:19;80.67;;;34.30;;
12369;SDS011;6249;52.128;9.986;2023-02-11T00:21:40;71.43;;;33.80;;
12369;SDS011;6249;52.128;9.986;2023-02-11T00:25:00;75.80;;;33.37;;
12369;SDS011;6249;52.128;9.986;2023-02-11T00:28:23;84.00;;;35.57;;
12369;SDS011;6249;52.128;9.986;2023-02-11T00:31:49;77.17;;;33.77;;
12369;SDS011;6249;52.128;9.986;2023-02-11T00:35:11;72.60;;;32.90;;
12369;SDS011;6249;52.128;9.986;2023-02-11T00:38:32;73.13;;;32.10;;
12369;SDS011;6249;52.128;9.986;2023-02-11T00:41:53;81.60;;;32.50;;
12369;SDS011;6249;52.128;9.986;2023-02-11T00:45:13;71.27;;;33.77;;
12369;SDS011;6249;52.128;9.986;2023-02-11T00:48:34;72.07;;;35.13;;
12369;SDS011;6249;52.128;9.986;2023-02-11T00:51:55;67.70;;;29.60;;
12369;SDS011;6249;52.128;9.986;2023-02-11T00:55:15;79.97;;;33.43;;
12369;SDS011;6249;52.128;9.986;2023-02-11T00:58:36;85.50;;;30.90;;
12369;SDS011;6249;52.128;9.986;2023-02-11T01:01:57;70.40;;;31.60;;
12369;SDS011;6249;52.128;9.986;2023-02-11T01:05:18;70.30;;;31.90;;
12369;SDS011;6249;52.128;9.986;2023-02-11T01:08:39;75.77;;;30.60;;
12369;SDS011;6249;52.128;9.986;2023-02-11T01:12:05;74.90;;;30.40;;
12369;SDS011;6249;52.128;9.986;2023-02-11T01:15:28;82.70;;;33.37;;
12369;SDS011;6249;52.128;9.986;2023-02-11T01:18:48;77.30;;;36.03;;
12369;SDS011;6249;52.128;9.986;2023-02-11T01:22:11;89.20;;;38.20;;
12369;SDS011;6249;52.128;9.986;2023-02-11T01:25:32;87.47;;;37.90;;
12369;SDS011;6249;52.128;9.986;2023-02-11T01:28:55;82.23;;;38.43;;
12369;SDS011;6249;52.128;9.986;2023-02-11T01:32:16;82.23;;;37.57;;
12369;SDS011;6249;52.128;9.986;2023-02-11T01:35:37;83.43;;;37.80;;
12369;SDS011;6249;52.128;9.986;2023-02-11T01:38:58;94.93;;;37.63;;
12369;SDS011;6249;52.128;9.986;2023-02-11T01:42:24;86.07;;;37.87;;
12369;SDS011;6249;52.128;9.986;2023-02-11T01:52:36;83.73;;;37.10;;
12369;SDS011;6249;52.128;9.986;2023-02-11T01:55:59;79.40;;;36.47;;
12369;SDS011;6249;52.128;9.986;2023-02-11T01:59:40;76.33;;;34.87;;
12369;SDS011;6249;52.128;9.986;2023-02-11T02:03:19;87.03;;;39.17;;
12369;SDS011;6249;52.128;9.986;2023-02-11T02:06:46;92.87;;;38.60;;
12369;SDS011;6249;52.128;9.986;2023-02-11T02:10:21;104.17;;;39.87;;
12369;SDS011;6249;52.128;9.986;2023-02-11T02:13:45;92.40;;;41.80;;
12369;SDS011;6249;52.128;9.986;2023-02-11T02:17:06;92.00;;;40.03;;
12369;SDS011;6249;52.128;9.986;2023-02-11T02:39:06;81.70;;;36.63;;
12369;SDS011;6249;52.128;9.986;2023-02-11T02:42:37;83.77;;;39.73;;
12369;SDS011;6249;52.128;9.986;2023-02-11T02:46:12;92.10;;;40.63;;
12369;SDS011;6249;52.128;9.986;2023-02-11T02:49:45;75.13;;;34.73;;
12369;SDS011;6249;52.128;9.986;2023-02-11T02:56:41;81.40;;;38.70;;
12369;SDS011;6249;52.128;9.986;2023-02-11T03:07:26;69.07;;;32.83;;
12369;SDS011;6249;52.128;9.986;2023-02-11T03:11:03;80.00;;;37.40;;
12369;SDS011;6249;52.128;9.986;2023-02-11T03:14:25;89.43;;;37.10;;
12369;SDS011;6249;52.128;9.986;2023-02-11T03:17:50;83.33;;;35.97;;
12369;SDS011;6249;52.128;9.986;2023-02-11T03:21:14;82.53;;;36.83;;
12369;SDS011;6249;52.128;9.986;2023-02-11T03:24:37;73.73;;;36.27;;
12369;SDS011;6249;52.128;9.986;2023-02-11T03:28:04;82.90;;;36.80;;
12369;SDS011;6249;52.128;9.986;2023-02-11T03:35:43;78.73;;;35.70;;
12369;SDS011;6249;52.128;9.986;2023-02-11T03:39:09;76.03;;;34.87;;
12369;SDS011;6249;52.128;9.986;2023-02-11T03:42:36;89.53;;;37.93;;
12369;SDS011;6249;52.128;9.986;2023-02-11T03:46:01;84.50;;;35.60;;
12369;SDS011;6249;52.128;9.986;2023-02-11T03:49:23;93.80;;;40.97;;
12369;SDS011;6249;52.128;9.986;2023-02-11T03:52:48;90.40;;;39.13;;
12369;SDS011;6249;52.128;9.986;2023-02-11T03:56:14;79.97;;;37.80;;
12369;SDS011;6249;52.128;9.986;2023-02-11T03:59:51;83.27;;;38.10;;
12369;SDS011;6249;52.128;9.986;2023-02-11T04:03:16;101.43;;;41.80;;
12369;SDS011;6249;52.128;9.986;2023-02-11T04:06:36;102.97;;;42.60;;
12369;SDS011;6249;52.128;9.986;2023-02-11T04:09:57;91.80;;;36.30;;
12369;SDS011;6249;52.128;9.986;2023-02-11T04:13:18;91.37;;;36.67;;
12369;SDS011;6249;52.128;9.986;2023-02-11T04:16:41;98.93;;;43.13;;
12369;SDS011;6249;52.128;9.986;2023-02-11T04:20:02;102.40;;;43.97;;
12369;SDS011;6249;52.128;9.986;2023-02-11T04:23:23;87.50;;;37.30;;
12369;SDS011;6249;52.128;9.986;2023-02-11T04:26:44;88.40;;;39.03;;
12369;SDS011;6249;52.128;9.986;2023-02-11T04:30:05;88.10;;;41.10;;
12369;SDS011;6249;52.128;9.986;2023-02-11T04:33:28;93.97;;;38.70;;
12369;SDS011;6249;52.128;9.986;2023-02-11T04:36:49;96.13;;;37.30;;
12369;SDS011;6249;52.128;9.986;2023-02-11T04:40:12;74.60;;;32.87;;
12369;SDS011;6249;52.128;9.986;2023-02-11T04:43:33;94.87;;;40.67;;
12369;SDS011;6249;52.128;9.986;2023-02-11T04:46:54;96.23;;;43.47;;
12369;SDS011;6249;52.128;9.986;2023-02-11T04:50:14;92.23;;;41.87;;
12369;SDS011;6249;52.128;9.986;2023-02-11T04:53:35;65.43;;;30.93;;
12369;SDS011;6249;52.128;9.986;2023-02-11T04:56:56;109.43;;;45.50;;
12369;SDS011;6249;52.128;9.986;2023-02-11T05:00:18;121.73;;;43.50;;
12369;SDS011;6249;52.128;9.986;2023-02-11T05:03:44;72.13;;;33.67;;
12369;SDS011;6249;52.128;9.986;2023-02-11T05:07:04;80.50;;;40.57;;
12369;SDS011;6249;52.128;9.986;2023-02-11T05:10:25;71.73;;;33.00;;
12369;SDS011;6249;52.128;9.986;2023-02-11T05:13:46;74.37;;;35.40;;
12369;SDS011;6249;52.128;9.986;2023-02-11T05:17:07;70.97;;;33.93;;
12369;SDS011;6249;52.128;9.986;2023-02-11T05:20:28;77.30;;;34.23;;
12369;SDS011;6249;52.128;9.986;2023-02-11T05:23:48;66.67;;;31.30;;
12369;SDS011;6249;52.128;9.986;2023-02-11T05:27:11;74.07;;;35.63;;
12369;SDS011;6249;52.128;9.986;2023-02-11T05:30:32;69.23;;;31.70;;
12369;SDS011;6249;52.128;9.986;2023-02-11T05:33:52;67.77;;;33.67;;
12369;SDS011;6249;52.128;9.986;2023-02-11T05:37:13;61.13;;;31.93;;
12369;SDS011;6249;52.128;9.986;2023-02-11T05:40:34;84.80;;;29.67;;
12369;SDS011;6249;52.128;9.986;2023-02-11T05:43:54;54.93;;;30.83;;
12369;SDS011;6249;52.128;9.986;2023-02-11T05:47:15;58.17;;;32.10;;
12369;SDS011;6249;52.128;9.986;2023-02-11T05:50:40;62.57;;;31.17;;
12369;SDS011;6249;52.128;9.986;2023-02-11T05:54:03;59.80;;;31.07;;
12369;SDS011;6249;52.128;9.986;2023-02-11T05:57:27;62.77;;;31.93;;
12369;SDS011;6249;52.128;9.986;2023-02-11T06:00:47;67.90;;;32.27;;
12369;SDS011;6249;52.128;9.986;2023-02-11T06:04:08;70.00;;;32.87;;
12369;SDS011;6249;52.128;9.986;2023-02-11T06:07:28;66.20;;;32.07;;
12369;SDS011;6249;52.128;9.986;2023-02-11T06:10:51;71.40;;;32.97;;
12369;SDS011;6249;52.128;9.986;2023-02-11T06:14:12;63.73;;;32.80;;
12369;SDS011;6249;52.128;9.986;2023-02-11T06:17:33;67.20;;;33.23;;
12369;SDS011;6249;52.128;9.986;2023-02-11T06:20:55;79.93;;;36.20;;
12369;SDS011;6249;52.128;9.986;2023-02-11T06:24:16;76.40;;;34.50;;
12369;SDS011;6249;52.128;9.986;2023-02-11T06:27:42;68.47;;;33.37;;
12369;SDS011;6249;52.128;9.986;2023-02-11T06:31:05;69.27;;;31.33;;
12369;SDS011;6249;52.128;9.986;2023-02-11T06:34:26;70.93;;;35.07;;
12369;SDS011;6249;52.128;9.986;2023-02-11T06:37:49;75.23;;;34.27;;
12369;SDS011;6249;52.128;9.986;2023-02-11T06:41:13;68.27;;;30.67;;
12369;SDS011;6249;52.128;9.986;2023-02-11T06:44:39;80.17;;;38.10;;
12369;SDS011;6249;52.128;9.986;2023-02-11T06:47:59;94.07;;;39.83;;
12369;SDS011;6249;52.128;9.986;2023-02-11T06:51:20;86.93;;;38.97;;
12369;SDS011;6249;52.128;9.986;2023-02-11T06:54:40;80.53;;;36.73;;
12369;SDS011;6249;52.128;9.986;2023-02-11T06:58:01;94.50;;;41.80;;
12369;SDS011;6249;52.128;9.986;2023-02-11T07:01:26;92.50;;;40.60;;
12369;SDS011;6249;52.128;9.986;2023-02-11T07:04:47;69.07;;;31.63;;
12369;SDS011;6249;52.128;9.986;2023-02-11T07:08:10;86.90;;;40.40;;
12369;SDS011;6249;52.128;9.986;2023-02-11T07:11:31;114.43;;;47.87;;
12369;SDS011;6249;52.128;9.986;2023-02-11T07:14:52;88.40;;;39.87;;
12369;SDS011;6249;52.128;9.986;2023-02-11T07:18:15;84.90;;;32.83;;
12369;SDS011;6249;52.128;9.986;2023-02-11T07:21:36;81.37;;;34.20;;
12369;SDS011;6249;52.128;9.986;2023-02-11T07:24:56;75.07;;;35.47;;
12369;SDS011;6249;52.128;9.986;2023-02-11T07:28:17;101.00;;;44.40;;
12369;SDS011;6249;52.128;9.986;2023-02-11T07:31:37;87.90;;;42.97;;
12369;SDS011;6249;52.128;9.986;2023-02-11T07:34:58;86.83;;;40.20;;
12369;SDS011;6249;52.128;9.986;2023-02-11T07:38:19;96.13;;;37.40;;
12369;SDS011;6249;52.128;9.986;2023-02-11T07:41:39;85.87;;;37.20;;
12369;SDS011;6249;52.128;9.986;2023-02-11T07:45:03;102.13;;;42.90;;
12369;SDS011;6249;52.128;9.986;2023-02-11T07:48:24;91.80;;;38.60;;
12369;SDS011;6249;52.128;9.986;2023-02-11T07:51:44;97.30;;;40.20;;
12369;SDS011;6249;52.128;9.986;2023-02-11T07:55:12;81.37;;;34.47;;
12369;SDS011;6249;52.128;9.986;2023-02-11T07:58:33;93.37;;;41.17;;
12369;SDS011;6249;52.128;9.986;2023-02-11T08:01:54;92.67;;;43.37;;
12369;SDS011;6249;52.128;9.986;2023-02-11T08:05:17;81.70;;;36.27;;
12369;SDS011;6249;52.128;9.986;2023-02-11T08:08:37;103.77;;;44.07;;
12369;SDS011;6249;52.128;9.986;2023-02-11T08:12:01;101.90;;;44.27;;
12369;SDS011;6249;52.128;9.986;2023-02-11T08:15:24;90.23;;;41.13;;
12369;SDS011;6249;52.128;9.986;2023-02-11T08:18:44;72.97;;;32.10;;
12369;SDS011;6249;52.128;9.986;2023-02-11T08:22:05;100.40;;;39.27;;
12369;SDS011;6249;52.128;9.986;2023-02-11T08:25:26;71.83;;;32.67;;
12369;SDS011;6249;52.128;9.986;2023-02-11T08:28:47;83.67;;;41.10;;
12369;SDS011;6249;52.128;9.986;2023-02-11T08:32:08;73.33;;;33.27;;
12369;SDS011;6249;52.128;9.986;2023-02-11T08:35:29;86.23;;;39.33;;
12369;SDS011;6249;52.128;9.986;2023-02-11T08:38:50;95.37;;;36.67;;
12369;SDS011;6249;52.128;9.986;2023-02-11T08:42:12;77.90;;;35.43;;
12369;SDS011;6249;52.128;9.986;2023-02-11T08:45:36;92.93;;;37.67;;
12369;SDS011;6249;52.128;9.986;2023-02-11T08:48:56;76.83;;;34.70;;
12369;SDS011;6249;52.128;9.986;2023-02-11T08:52:17;93.30;;;38.03;;
12369;SDS011;6249;52.128;9.986;2023-02-11T08:55:37;84.93;;;37.67;;
12369;SDS011;6249;52.128;9.986;2023-02-11T08:59:01;107.20;;;40.67;;
12369;SDS011;6249;52.128;9.986;2023-02-11T09:02:21;65.93;;;32.37;;
12369;SDS011;6249;52.128;9.986;2023-02-11T09:05:46;77.27;;;37.40;;
12369;SDS011;6249;52.128;9.986;2023-02-11T09:09:10;83.53;;;39.27;;
12369;SDS011;6249;52.128;9.986;2023-02-11T09:12:34;82.47;;;39.40;;
12369;SDS011;6249;52.128;9.986;2023-02-11T09:15:54;81.20;;;33.90;;
12369;SDS011;6249;52.128;9.986;2023-02-11T09:19:15;65.70;;;29.17;;
12369;SDS011;6249;52.128;9.986;2023-02-11T09:22:39;94.30;;;39.43;;
12369;SDS011;6249;52.128;9.986;2023-02-11T09:26:23;69.70;;;31.47;;
12369;SDS011;6249;52.128;9.986;2023-02-11T09:29:42;85.20;;;35.07;;
12369;SDS011;6249;52.128;9.986;2023-02-11T09:33:04;88.50;;;36.17;;
12369;SDS011;6249;52.128;9.986;2023-02-11T09:36:29;107.13;;;41.17;;
12369;SDS011;6249;52.128;9.986;2023-02-11T09:39:51;87.20;;;40.90;;
12369;SDS011;6249;52.128;9.986;2023-02-11T09:43:16;84.53;;;34.77;;
12369;SDS011;6249;52.128;9.986;2023-02-11T09:46:40;88.17;;;37.50;;
12369;SDS011;6249;52.128;9.986;2023-02-11T09:50:04;103.60;;;41.60;;
12369;SDS011;6249;52.128;9.986;2023-02-11T09:53:26;101.93;;;40.83;;
12369;SDS011;6249;52.128;9.986;2023-02-11T09:56:48;88.57;;;37.63;;
12369;SDS011;6249;52.128;9.986;2023-02-11T10:00:22;86.03;;;38.03;;
12369;SDS011;6249;52.128;9.986;2023-02-11T10:03:53;89.87;;;37.70;;
12369;SDS011;6249;52.128;9.986;2023-02-11T10:11:00;89.27;;;41.10;;
12369;SDS011;6249;52.128;9.986;2023-02-11T10:18:59;80.33;;;31.27;;
12369;SDS011;6249;52.128;9.986;2023-02-11T10:22:18;82.80;;;39.07;;
12369;SDS011;6249;52.128;9.986;2023-02-11T10:25:49;88.60;;;36.83;;
12369;SDS011;6249;52.128;9.986;2023-02-11T10:33:18;96.93;;;42.07;;
12369;SDS011;6249;52.128;9.986;2023-02-11T10:36:45;88.17;;;38.30;;
12369;SDS011;6249;52.128;9.986;2023-02-11T10:40:11;91.40;;;38.80;;
12369;SDS011;6249;52.128;9.986;2023-02-11T10:43:34;79.17;;;33.97;;
12369;SDS011;6249;52.128;9.986;2023-02-11T10:46:56;89.07;;;39.00;;
12369;SDS011;6249;52.128;9.986;2023-02-11T10:50:27;95.73;;;36.70;;
12369;SDS011;6249;52.128;9.986;2023-02-11T10:57:32;98.07;;;42.90;;
12369;SDS011;6249;52.128;9.986;2023-02-11T11:00:55;85.77;;;39.90;;
12369;SDS011;6249;52.128;9.986;2023-02-11T11:04:41;77.77;;;34.93;;
12369;SDS011;6249;52.128;9.986;2023-02-11T11:08:05;91.90;;;37.57;;
12369;SDS011;6249;52.128;9.986;2023-02-11T11:11:27;82.40;;;36.67;;
12369;SDS011;6249;52.128;9.986;2023-02-11T11:15:02;83.17;;;39.60;;
12369;SDS011;6249;52.128;9.986;2023-02-11T11:18:35;89.67;;;37.53;;
12369;SDS011;6249;52.128;9.986;2023-02-11T11:21:58;84.20;;;35.60;;
12369;SDS011;6249;52.128;9.986;2023-02-11T11:25:28;87.23;;;39.50;;
12369;SDS011;6249;52.128;9.986;2023-02-11T11:33:02;86.97;;;35.07;;
12369;SDS011;6249;52.128;9.986;2023-02-11T11:36:29;89.77;;;37.90;;
12369;SDS011;6249;52.128;9.986;2023-02-11T11:43:34;90.20;;;32.30;;
12369;SDS011;6249;52.128;9.986;2023-02-11T11:54:05;86.77;;;34.03;;
12369;SDS011;6249;52.128;9.986;2023-02-11T11:57:30;57.90;;;27.43;;
12369;SDS011;6249;52.128;9.986;2023-02-11T12:08:10;68.20;;;30.80;;
12369;SDS011;6249;52.128;9.986;2023-02-11T12:30:47;44.57;;;22.30;;
12369;SDS011;6249;52.128;9.986;2023-02-11T12:37:16;52.13;;;24.60;;
12369;SDS011;6249;52.128;9.986;2023-02-11T12:53:00;49.83;;;23.53;;
12369;SDS011;6249;52.128;9.986;2023-02-11T13:00:39;51.87;;;22.23;;
12369;SDS011;6249;52.128;9.986;2023-02-11T13:04:15;55.63;;;25.73;;
12369;SDS011;6249;52.128;9.986;2023-02-11T13:07:47;45.63;;;23.47;;
12369;SDS011;6249;52.128;9.986;2023-02-11T13:11:12;48.77;;;23.47;;
12369;SDS011;6249;52.128;9.986;2023-02-11T13:14:39;51.57;;;25.60;;
12369;SDS011;6249;52.128;9.986;2023-02-11T13:32:20;55.50;;;27.57;;
12369;SDS011;6249;52.128;9.986;2023-02-11T13:35:48;52.40;;;24.23;;
12369;SDS011;6249;52.128;9.986;2023-02-11T13:39:18;49.30;;;24.47;;
12369;SDS011;6249;52.128;9.986;2023-02-11T13:42:48;45.80;;;22.40;;
12369;SDS011;6249;52.128;9.986;2023-02-11T13:46:16;43.87;;;22.57;;
12369;SDS011;6249;52.128;9.986;2023-02-11T13:49:40;45.70;;;22.87;;
12369;SDS011;6249;52.128;9.986;2023-02-11T13:53:08;46.53;;;24.17;;
12369;SDS011;6249;52.128;9.986;2023-02-11T13:56:30;46.20;;;24.10;;
12369;SDS011;6249;52.128;9.986;2023-02-11T14:04:18;56.70;;;27.07;;
12369;SDS011;6249;52.128;9.986;2023-02-11T14:11:49;49.20;;;22.10;;
12369;SDS011;6249;52.128;9.986;2023-02-11T14:15:18;53.60;;;23.63;;
12369;SDS011;6249;52.128;9.986;2023-02-11T14:22:04;46.17;;;22.30;;
12369;SDS011;6249;52.128;9.986;2023-02-11T14:25:28;37.33;;;16.13;;
12369;SDS011;6249;52.128;9.986;2023-02-11T14:32:27;47.10;;;18.90;;
12369;SDS011;6249;52.128;9.986;2023-02-11T14:43:21;48.53;;;22.80;;
12369;SDS011;6249;52.128;9.986;2023-02-11T14:46:58;40.60;;;21.67;;
12369;SDS011;6249;52.128;9.986;2023-02-11T14:50:40;42.43;;;20.97;;
12369;SDS011;6249;52.128;9.986;2023-02-11T14:54:01;50.10;;;22.40;;
12369;SDS011;6249;52.128;9.986;2023-02-11T14:57:32;43.53;;;21.57;;
12369;SDS011;6249;52.128;9.986;2023-02-11T15:00:54;27.97;;;13.67;;
12369;SDS011;6249;52.128;9.986;2023-02-11T15:07:52;39.47;;;19.00;;
12369;SDS011;6249;52.128;9.986;2023-02-11T15:11:16;37.63;;;16.53;;
12369;SDS011;6249;52.128;9.986;2023-02-11T15:14:39;27.00;;;13.63;;
12369;SDS011;6249;52.128;9.986;2023-02-11T15:18:04;39.43;;;17.70;;
12369;SDS011;6249;52.128;9.986;2023-02-11T15:21:26;35.90;;;15.10;;
12369;SDS011;6249;52.128;9.986;2023-02-11T15:25:00;39.27;;;17.40;;
12369;SDS011;6249;52.128;9.986;2023-02-11T15:28:43;32.80;;;15.83;;
12369;SDS011;6249;52.128;9.986;2023-02-11T15:35:42;32.47;;;15.73;;
12369;SDS011;6249;52.128;9.986;2023-02-11T15:39:27;34.57;;;18.10;;
12369;SDS011;6249;52.128;9.986;2023-02-11T15:46:16;34.10;;;17.43;;
12369;SDS011;6249;52.128;9.986;2023-02-11T15:49:45;32.80;;;15.17;;
12369;SDS011;6249;52.128;9.986;2023-02-11T15:56:46;44.40;;;20.53;;
12369;SDS011;6249;52.128;9.986;2023-02-11T16:00:21;40.77;;;21.67;;
12369;SDS011;6249;52.128;9.986;2023-02-11T16:03:50;41.30;;;20.97;;
12369;SDS011;6249;52.128;9.986;2023-02-11T16:07:36;48.80;;;20.53;;
12369;SDS011;6249;52.128;9.986;2023-02-11T16:11:04;53.40;;;21.37;;
12369;SDS011;6249;52.128;9.986;2023-02-11T16:17:50;41.43;;;20.03;;
12369;SDS011;6249;52.128;9.986;2023-02-11T16:21:14;42.00;;;19.17;;
12369;SDS011;6249;52.128;9.986;2023-02-11T16:24:36;42.93;;;21.33;;
12369;SDS011;6249;52.128;9.986;2023-02-11T16:27:58;47.73;;;21.60;;
12369;SDS011;6249;52.128;9.986;2023-02-11T16:31:19;43.10;;;21.13;;
12369;SDS011;6249;52.128;9.986;2023-02-11T16:34:51;52.73;;;21.63;;
12369;SDS011;6249;52.128;9.986;2023-02-11T16:38:16;44.93;;;20.97;;
12369;SDS011;6249;52.128;9.986;2023-02-11T16:41:37;47.60;;;24.30;;
12369;SDS011;6249;52.128;9.986;2023-02-11T16:44:59;51.00;;;21.07;;
12369;SDS011;6249;52.128;9.986;2023-02-11T16:48:20;45.87;;;21.60;;
12369;SDS011;6249;52.128;9.986;2023-02-11T16:51:43;47.73;;;23.00;;
12369;SDS011;6249;52.128;9.986;2023-02-11T16:55:08;51.50;;;21.23;;
12369;SDS011;6249;52.128;9.986;2023-02-11T16:58:33;52.07;;;22.67;;
12369;SDS011;6249;52.128;9.986;2023-02-11T17:01:54;44.20;;;22.03;;
12369;SDS011;6249;52.128;9.986;2023-02-11T17:05:19;45.67;;;22.30;;
12369;SDS011;6249;52.128;9.986;2023-02-11T17:08:44;45.60;;;21.60;;
12369;SDS011;6249;52.128;9.986;2023-02-11T17:12:07;48.67;;;23.90;;
12369;SDS011;6249;52.128;9.986;2023-02-11T17:15:28;52.80;;;24.17;;
12369;SDS011;6249;52.128;9.986;2023-02-11T17:18:49;49.83;;;22.60;;
12369;SDS011;6249;52.128;9.986;2023-02-11T17:22:13;54.67;;;24.33;;
12369;SDS011;6249;52.128;9.986;2023-02-11T17:25:34;49.70;;;23.20;;
12369;SDS011;6249;52.128;9.986;2023-02-11T17:28:57;52.00;;;24.57;;
12369;SDS011;6249;52.128;9.986;2023-02-11T17:32:18;53.77;;;23.93;;
12369;SDS011;6249;52.128;9.986;2023-02-11T17:35:39;57.23;;;23.37;;
12369;SDS011;6249;52.128;9.986;2023-02-11T17:39:04;51.83;;;24.77;;
12369;SDS011;6249;52.128;9.986;2023-02-11T17:42:24;46.07;;;23.30;;
12369;SDS011;6249;52.128;9.986;2023-02-11T17:45:45;55.40;;;24.13;;
12369;SDS011;6249;52.128;9.986;2023-02-11T17:49:11;67.33;;;25.10;;
12369;SDS011;6249;52.128;9.986;2023-02-11T17:52:31;56.27;;;23.97;;
12369;SDS011;6249;52.128;9.986;2023-02-11T17:55:53;55.50;;;24.87;;
12369;SDS011;6249;52.128;9.986;2023-02-11T17:59:15;53.77;;;27.57;;
12369;SDS011;6249;52.128;9.986;2023-02-11T18:02:38;61.80;;;28.47;;
12369;SDS011;6249;52.128;9.986;2023-02-11T18:06:02;53.90;;;25.03;;
12369;SDS011;6249;52.128;9.986;2023-02-11T18:09:26;54.87;;;25.33;;
12369;SDS011;6249;52.128;9.986;2023-02-11T18:12:49;46.50;;;15.97;;
12369;SDS011;6249;52.128;9.986;2023-02-11T18:16:10;61.07;;;25.80;;
12369;SDS011;6249;52.128;9.986;2023-02-11T18:19:34;53.67;;;23.10;;
12369;SDS011;6249;52.128;9.986;2023-02-11T18:22:56;59.40;;;26.40;;
12369;SDS011;6249;52.128;9.986;2023-02-11T18:26:17;48.30;;;24.07;;
12369;SDS011;6249;52.128;9.986;2023-02-11T18:29:39;56.83;;;24.40;;
12369;SDS011;6249;52.128;9.986;2023-02-11T18:32:59;54.00;;;24.50;;
12369;SDS011;6249;52.128;9.986;2023-02-11T18:36:20;59.40;;;24.93;;
12369;SDS011;6249;52.128;9.986;2023-02-11T18:39:42;57.30;;;27.10;;
12369;SDS011;6249;52.128;9.986;2023-02-11T18:43:04;51.07;;;24.20;;
12369;SDS011;6249;52.128;9.986;2023-02-11T18:46:25;45.50;;;23.70;;
12369;SDS011;6249;52.128;9.986;2023-02-11T18:49:46;51.10;;;24.73;;
12369;SDS011;6249;52.128;9.986;2023-02-11T18:53:09;56.90;;;26.20;;
12369;SDS011;6249;52.128;9.986;2023-02-11T18:56:30;64.53;;;31.17;;
12369;SDS011;6249;52.128;9.986;2023-02-11T18:59:54;65.27;;;28.43;;
12369;SDS011;6249;52.128;9.986;2023-02-11T19:03:14;57.57;;;26.83;;
12369;SDS011;6249;52.128;9.986;2023-02-11T19:06:36;58.70;;;27.77;;
12369;SDS011;6249;52.128;9.986;2023-02-11T19:09:57;57.40;;;27.77;;
12369;SDS011;6249;52.128;9.986;2023-02-11T19:13:18;56.50;;;24.63;;
12369;SDS011;6249;52.128;9.986;2023-02-11T19:16:41;45.50;;;23.27;;
12369;SDS011;6249;52.128;9.986;2023-02-11T19:20:03;52.20;;;24.53;;
12369;SDS011;6249;52.128;9.986;2023-02-11T19:23:25;54.53;;;26.87;;
12369;SDS011;6249;52.128;9.986;2023-02-11T19:26:48;57.97;;;26.07;;
12369;SDS011;6249;52.128;9.986;2023-02-11T19:30:13;49.50;;;25.80;;
12369;SDS011;6249;52.128;9.986;2023-02-11T19:33:34;59.63;;;27.47;;
12369;SDS011;6249;52.128;9.986;2023-02-11T19:36:55;56.00;;;26.40;;
12369;SDS011;6249;52.128;9.986;2023-02-11T19:40:18;53.70;;;27.50;;
12369;SDS011;6249;52.128;9.986;2023-02-11T19:43:42;59.80;;;27.57;;
12369;SDS011;6249;52.128;9.986;2023-02-11T19:47:05;65.77;;;26.47;;
12369;SDS011;6249;52.128;9.986;2023-02-11T19:50:29;53.57;;;26.93;;
12369;SDS011;6249;52.128;9.986;2023-02-11T19:53:52;56.50;;;27.17;;
12369;SDS011;6249;52.128;9.986;2023-02-11T19:57:16;60.00;;;29.13;;
12369;SDS011;6249;52.128;9.986;2023-02-11T20:00:37;55.03;;;26.93;;
12369;SDS011;6249;52.128;9.986;2023-02-11T20:04:01;52.17;;;27.60;;
12369;SDS011;6249;52.128;9.986;2023-02-11T20:07:22;59.33;;;27.03;;
12369;SDS011;6249;52.128;9.986;2023-02-11T20:10:43;56.47;;;26.87;;
12369;SDS011;6249;52.128;9.986;2023-02-11T20:14:04;53.43;;;27.83;;
12369;SDS011;6249;52.128;9.986;2023-02-11T20:17:27;62.63;;;27.53;;
12369;SDS011;6249;52.128;9.986;2023-02-11T20:20:48;61.63;;;28.50;;
12369;SDS011;6249;52.128;9.986;2023-02-11T20:24:08;48.80;;;25.30;;
12369;SDS011;6249;52.128;9.986;2023-02-11T20:27:32;53.17;;;28.93;;
12369;SDS011;6249;52.128;9.986;2023-02-11T20:30:54;60.43;;;28.57;;
12369;SDS011;6249;52.128;9.986;2023-02-11T20:34:18;61.00;;;30.40;;
12369;SDS011;6249;52.128;9.986;2023-02-11T20:37:40;56.37;;;26.90;;
12369;SDS011;6249;52.128;9.986;2023-02-11T20:44:26;57.93;;;26.87;;
12369;SDS011;6249;52.128;9.986;2023-02-11T20:47:47;52.40;;;26.70;;
12369;SDS011;6249;52.128;9.986;2023-02-11T20:51:09;53.10;;;26.50;;
12369;SDS011;6249;52.128;9.986;2023-02-11T20:54:34;63.13;;;28.63;;
12369;SDS011;6249;52.128;9.986;2023-02-11T20:57:55;55.07;;;28.73;;
12369;SDS011;6249;52.128;9.986;2023-02-11T21:01:18;57.87;;;26.90;;
12369;SDS011;6249;52.128;9.986;2023-02-11T21:04:43;62.50;;;28.40;;
12369;SDS011;6249;52.128;9.986;2023-02-11T21:08:04;56.50;;;27.17;;
12369;SDS011;6249;52.128;9.986;2023-02-11T21:11:25;68.97;;;31.23;;
12369;SDS011;6249;52.128;9.986;2023-02-11T21:14:46;75.70;;;30.17;;
12369;SDS011;6249;52.128;9.986;2023-02-11T21:18:08;64.67;;;30.13;;
12369;SDS011;6249;52.128;9.986;2023-02-11T21:21:34;68.67;;;30.77;;
12369;SDS011;6249;52.128;9.986;2023-02-11T21:24:58;65.10;;;31.40;;
12369;SDS011;6249;52.128;9.986;2023-02-11T21:28:20;71.27;;;33.40;;
12369;SDS011;6249;52.128;9.986;2023-02-11T21:31:45;66.33;;;31.10;;
12369;SDS011;6249;52.128;9.986;2023-02-11T21:35:05;53.93;;;28.13;;
12369;SDS011;6249;52.128;9.986;2023-02-11T21:38:26;58.70;;;28.90;;
12369;SDS011;6249;52.128;9.986;2023-02-11T21:41:50;54.87;;;27.40;;
12369;SDS011;6249;52.128;9.986;2023-02-11T21:45:11;52.53;;;28.10;;
12369;SDS011;6249;52.128;9.986;2023-02-11T21:48:36;63.63;;;26.50;;
12369;SDS011;6249;52.128;9.986;2023-02-11T21:51:57;52.80;;;29.30;;
12369;SDS011;6249;52.128;9.986;2023-02-11T21:55:17;48.80;;;26.50;;
12369;SDS011;6249;52.128;9.986;2023-02-11T21:58:38;53.97;;;26.80;;
12369;SDS011;6249;52.128;9.986;2023-02-11T22:02:01;53.40;;;26.97;;
12369;SDS011;6249;52.128;9.986;2023-02-11T22:05:22;52.20;;;26.57;;
12369;SDS011;6249;52.128;9.986;2023-02-11T22:08:43;44.37;;;24.60;;
12369;SDS011;6249;52.128;9.986;2023-02-11T22:12:06;43.33;;;24.60;;
12369;SDS011;6249;52.128;9.986;2023-02-11T22:15:27;47.43;;;24.20;;
12369;SDS011;6249;52.128;9.986;2023-02-11T22:18:48;53.50;;;26.17;;
12369;SDS011;6249;52.128;9.986;2023-02-11T22:22:10;49.70;;;25.20;;
12369;SDS011;6249;52.128;9.986;2023-02-11T22:25:32;38.17;;;21.60;;
12369;SDS011;6249;52.128;9.986;2023-02-11T22:28:55;39.93;;;21.87;;
12369;SDS011;6249;52.128;9.986;2023-02-11T22:32:18;37.63;;;20.53;;
12369;SDS011;6249;52.128;9.986;2023-02-11T22:35:39;32.47;;;19.00;;
12369;SDS011;6249;52.128;9.986;2023-02-11T22:39:00;33.03;;;18.63;;
12369;SDS011;6249;52.128;9.986;2023-02-11T22:42:22;31.13;;;18.70;;
12369;SDS011;6249;52.128;9.986;2023-02-11T22:45:45;34.23;;;17.30;;
12369;SDS011;6249;52.128;9.986;2023-02-11T22:49:10;35.77;;;16.77;;
12369;SDS011;6249;52.128;9.986;2023-02-11T22:52:34;25.80;;;15.63;;
12369;SDS011;6249;52.128;9.986;2023-02-11T22:55:55;27.67;;;15.80;;
12369;SDS011;6249;52.128;9.986;2023-02-11T22:59:16;26.90;;;15.30;;
12369;SDS011;6249;52.128;9.986;2023-02-11T23:02:40;28.73;;;15.33;;